Time;durP1;ratioP1;P1;durP2;ratioP2;P2;SDS_P1;SDS_P2;PMS_P1;PMS_P2;Temp;Humidity;BMP_temperature;BMP_pressure;BME280_temperature;BME280_humidity;BME280_pressure;Samples;Min_cycle;Max_cycle;Signal;HPM_P1;HPM_P2
2022/03/21 00:00:35;;;;;;;27.87;12.30;;;;;;;1.53;47.64;101202.66;5096805;28;20238;-62
2022/03/21 00:03:03;;;;;;;27.57;12.50;;;;;;;1.50;47.38;101200.16;5097368;28;20260;-56
2022/03/21 00:05:31;;;;;;;29.73;13.00;;;;;;;1.45;47.62;101196.78;5095896;28;20260;-59
2022/03/21 00:07:59;;;;;;;27.10;12.67;;;;;;;1.40;47.53;101193.44;5095779;28;20205;-64
2022/03/21 00:10:26;;;;;;;30.17;13.07;;;;;;;1.39;47.47;101196.78;5096439;28;20252;-56
2022/03/21 00:12:54;;;;;;;25.67;11.30;;;;;;;1.38;47.78;101195.13;5094086;28;20686;-64
2022/03/21 00:15:23;;;;;;;24.80;11.77;;;;;;;1.37;48.02;101193.44;5095765;28;20249;-56
2022/03/21 00:17:50;;;;;;;27.50;12.40;;;;;;;1.33;48.35;101181.69;5096504;28;20198;-64
2022/03/21 00:20:18;;;;;;;25.47;12.23;;;;;;;1.24;47.75;101182.53;5094649;28;20237;-56
2022/03/21 00:22:45;;;;;;;26.53;12.03;;;;;;;1.25;48.40;101178.31;5095276;28;20671;-64
2022/03/21 00:25:13;;;;;;;23.57;11.70;;;;;;;1.28;48.18;101178.31;5095499;28;20632;-63
2022/03/21 00:27:43;;;;;;;23.57;11.57;;;;;;;1.28;48.34;101174.13;5095429;28;20213;-64
2022/03/21 00:30:10;;;;;;;26.63;12.80;;;;;;;1.32;48.28;101177.50;5094983;28;20610;-57
2022/03/21 00:32:38;;;;;;;23.93;12.00;;;;;;;1.31;47.83;101173.31;5094522;28;20202;-65
2022/03/21 00:35:07;;;;;;;24.77;11.97;;;;;;;1.38;47.42;101174.13;5095723;28;20209;-64
2022/03/21 00:37:35;;;;;;;21.73;10.90;;;;;;;1.37;47.93;101173.28;5096865;28;20202;-56
2022/03/21 00:40:05;;;;;;;26.13;11.67;;;;;;;1.33;47.73;101169.06;5095144;28;20237;-57
2022/03/21 00:42:35;;;;;;;25.70;12.40;;;;;;;1.39;47.56;101171.59;5095923;28;20209;-65
2022/03/21 00:45:02;;;;;;;22.00;10.80;;;;;;;1.33;47.91;101171.59;5096504;28;20225;-58
2022/03/21 00:47:29;;;;;;;24.30;12.17;;;;;;;1.32;48.20;101169.94;5095460;28;20202;-65
2022/03/21 00:49:56;;;;;;;24.57;11.07;;;;;;;1.33;47.87;101172.44;5095156;28;20734;-56
2022/03/21 00:52:23;;;;;;;27.73;12.37;;;;;;;1.28;48.39;101166.59;5096623;28;20216;-64
2022/03/21 00:54:50;;;;;;;24.53;11.90;;;;;;;1.20;48.50;101165.75;5095227;28;20221;-65
2022/03/21 00:57:17;;;;;;;22.07;11.43;;;;;;;1.25;48.07;101153.13;5095936;28;20202;-64
2022/03/21 00:59:46;;;;;;;23.43;10.83;;;;;;;1.22;48.21;101163.19;5093951;28;20706;-64
2022/03/21 01:02:13;;;;;;;21.67;10.30;;;;;;;1.19;48.18;101148.09;5094728;28;20590;-65
2022/03/21 01:04:40;;;;;;;19.50;10.37;;;;;;;1.18;47.76;101152.28;5095307;28;20206;-64
2022/03/21 01:07:08;;;;;;;22.00;10.60;;;;;;;1.24;47.86;101151.44;5095088;28;20717;-56
2022/03/21 01:09:35;;;;;;;23.87;11.10;;;;;;;1.22;48.77;101153.13;5095124;28;20620;-64
2022/03/21 01:12:03;;;;;;;23.67;11.10;;;;;;;1.20;48.92;101149.78;5096301;28;20193;-60
2022/03/21 01:14:32;;;;;;;26.80;11.13;;;;;;;1.20;49.28;101154.81;5095004;28;20206;-57
2022/03/21 01:17:00;;;;;;;29.47;12.07;;;;;;;1.33;47.93;101153.97;5094213;28;20217;-56
2022/03/21 01:19:30;;;;;;;24.53;11.67;;;;;;;1.22;48.99;101148.09;5095486;28;20633;-65
2022/03/21 01:21:58;;;;;;;23.30;11.30;;;;;;;0.97;49.82;101143.06;5096152;28;20289;-63
2022/03/21 01:24:26;;;;;;;25.27;11.90;;;;;;;0.80;50.30;101145.56;5094756;28;20496;-57
2022/03/21 01:26:53;;;;;;;24.60;10.97;;;;;;;0.75;50.25;101141.38;5095966;28;20229;-56
2022/03/21 01:29:20;;;;;;;24.50;11.40;;;;;;;0.67;50.29;101148.94;5094869;28;20229;-56
2022/03/21 01:31:46;;;;;;;22.03;11.40;;;;;;;0.43;51.25;101144.66;5093476;28;20226;-57
2022/03/21 01:34:15;;;;;;;23.07;11.17;;;;;;;0.36;51.63;101138.78;5093174;28;20699;-56
2022/03/21 01:36:43;;;;;;;24.43;11.57;;;;;;;0.34;51.56;101135.41;5097638;28;20475;-62
2022/03/21 01:39:10;;;;;;;24.87;11.20;;;;;;;0.24;52.76;101136.25;5097252;28;20312;-64
2022/03/21 01:41:39;;;;;;;27.03;12.00;;;;;;;0.30;51.97;101137.94;5097930;28;20554;-65
2022/03/21 01:44:08;;;;;;;22.73;11.63;;;;;;;0.26;51.71;101133.72;5100275;28;20446;-64
2022/03/21 01:46:37;;;;;;;23.00;11.47;;;;;;;0.29;51.28;101138.75;5098972;28;20460;-64
2022/03/21 01:49:06;;;;;;;21.47;10.50;;;;;;;0.16;52.45;101136.19;5096978;28;20202;-56
2022/03/21 01:51:36;;;;;;;28.73;12.47;;;;;;;0.09;52.71;101143.72;5096883;28;21004;-57
2022/03/21 01:56:51;;;;;;;24.90;11.23;;;;;;;0.03;51.81;101139.53;5097548;28;21023;-65
2022/03/21 01:59:20;;;;;;;22.40;10.80;;;;;;;-0.04;52.20;101142.84;5098591;28;20547;-65
2022/03/21 02:01:50;;;;;;;22.23;10.93;;;;;;;-0.08;52.15;101141.16;5098200;28;20505;-65
2022/03/21 02:04:17;;;;;;;23.27;11.60;;;;;;;-0.04;52.04;101143.66;5098397;28;20447;-65
2022/03/21 02:06:46;;;;;;;25.40;11.57;;;;;;;-0.06;52.82;101139.47;5098195;28;20463;-65
2022/03/21 02:09:13;;;;;;;25.67;11.63;;;;;;;-0.03;53.23;101147.88;5097716;28;20666;-56
2022/03/21 02:11:41;;;;;;;23.30;10.43;;;;;;;-0.15;53.81;101144.44;5098287;28;20472;-63
2022/03/21 02:14:10;;;;;;;21.00;10.47;;;;;;;-0.17;53.10;101143.63;5098509;28;20501;-65
2022/03/21 02:16:40;;;;;;;23.97;11.27;;;;;;;-0.15;52.76;101139.44;5096317;28;20464;-57
2022/03/21 02:19:15;;;;;;;21.10;10.53;;;;;;;-0.17;52.71;101141.13;5097124;28;20456;-64
2022/03/21 02:21:48;;;;;;;23.00;10.53;;;;;;;-0.06;52.77;101139.47;5097940;28;20455;-65
2022/03/21 02:24:26;;;;;;;21.63;10.83;;;;;;;-0.03;52.43;101145.38;5097150;28;20513;-65
2022/03/21 02:26:57;;;;;;;19.73;10.27;;;;;;;0.03;52.58;101146.19;5098969;28;20282;-60
2022/03/21 02:29:27;;;;;;;21.47;10.23;;;;;;;0.01;52.86;101148.72;5096676;28;20440;-56
2022/03/21 02:31:55;;;;;;;20.47;10.43;;;;;;;0.12;52.11;101139.56;5097311;28;20480;-64
2022/03/21 02:34:25;;;;;;;21.87;10.20;;;;;;;0.16;51.95;101135.38;5097437;28;20471;-65
2022/03/21 02:36:56;;;;;;;23.07;10.17;;;;;;;0.16;51.67;101131.16;5097825;28;20459;-64
2022/03/21 02:39:23;;;;;;;25.70;10.30;;;;;;;0.14;51.49;101135.34;5097943;28;20464;-57
2022/03/21 02:41:51;;;;;;;21.83;9.57;;;;;;;0.06;51.76;101139.53;5097299;28;20458;-56
2022/03/21 02:44:20;;;;;;;22.53;10.17;;;;;;;-0.11;52.83;101136.09;5097857;28;20455;-56
2022/03/21 02:46:47;;;;;;;20.90;10.07;;;;;;;-0.25;52.64;101144.41;5096836;28;20222;-61
2022/03/21 02:49:15;;;;;;;21.77;10.40;;;;;;;-0.25;53.72;101143.56;5097476;28;20529;-56
2022/03/21 02:51:43;;;;;;;22.13;9.93;;;;;;;-0.35;53.43;101140.19;5097604;28;20472;-65
2022/03/21 02:54:13;;;;;;;21.73;10.37;;;;;;;-0.36;53.95;101151.03;5096895;28;20448;-56
2022/03/21 02:56:40;;;;;;;25.00;10.33;;;;;;;-0.36;53.46;101146.03;5097659;28;20479;-56
2022/03/21 02:59:07;;;;;;;21.97;9.60;;;;;;;-0.43;53.94;101144.31;5096811;28;20455;-64
2022/03/21 03:01:36;;;;;;;23.17;10.77;;;;;;;-0.48;54.06;101141.75;5096975;28;20495;-65
2022/03/21 03:04:03;;;;;;;19.63;9.63;;;;;;;-0.53;54.85;101142.56;5096311;28;20458;-57
2022/03/21 03:06:30;;;;;;;21.83;9.93;;;;;;;-0.51;54.61;101143.44;5097634;28;20487;-57
2022/03/21 03:08:58;;;;;;;22.57;9.67;;;;;;;-0.53;54.85;101140.06;5096454;28;20448;-64
2022/03/21 03:11:25;;;;;;;19.83;9.57;;;;;;;-0.54;55.13;101145.91;5096276;28;20557;-59
2022/03/21 03:13:52;;;;;;;22.50;9.83;;;;;;;-0.56;55.57;101132.50;5096319;28;20527;-57
2022/03/21 03:16:19;;;;;;;21.00;10.00;;;;;;;-0.58;55.49;101141.69;5097382;28;20879;-64
2022/03/21 03:18:48;;;;;;;22.23;10.53;;;;;;;-0.63;55.87;101140.84;5097854;28;20993;-65
2022/03/21 03:21:20;;;;;;;40.57;15.40;;;;;;;-0.75;55.05;101137.41;5096813;28;20527;-57
2022/03/21 03:23:50;;;;;;;43.67;17.43;;;;;;;-0.76;55.58;101134.88;5097419;28;20458;-61
2022/03/21 03:26:17;;;;;;;36.40;15.73;;;;;;;-0.79;56.25;101130.66;5096215;28;20479;-65
2022/03/21 03:28:45;;;;;;;28.83;14.03;;;;;;;-0.87;56.60;101136.47;5098177;28;20513;-57
2022/03/21 03:31:14;;;;;;;27.50;12.17;;;;;;;-0.96;57.83;101139.75;5095867;28;20486;-57
2022/03/21 03:33:42;;;;;;;31.73;13.30;;;;;;;-1.04;58.21;101139.69;5096631;28;20448;-65
2022/03/21 03:36:11;;;;;;;27.47;14.27;;;;;;;-0.97;58.50;101138.06;5097373;28;20487;-57
2022/03/21 03:38:38;;;;;;;38.77;17.57;;;;;;;-1.04;58.92;101134.69;5096334;28;20462;-57
2022/03/21 03:41:05;;;;;;;42.30;18.43;;;;;;;-1.08;59.61;101132.13;5095955;28;20492;-57
2022/03/21 03:43:32;;;;;;;30.27;15.07;;;;;;;-1.18;59.97;101127.03;5096339;28;20460;-56
2022/03/21 03:45:59;;;;;;;31.60;14.90;;;;;;;-1.21;59.92;101126.16;5096569;28;20472;-65
2022/03/21 03:48:26;;;;;;;29.90;13.60;;;;;;;-1.18;60.04;101129.53;5096510;28;20474;-65
2022/03/21 03:50:53;;;;;;;29.20;13.07;;;;;;;-1.16;60.25;101130.41;5097032;28;20494;-57
2022/03/21 03:53:22;;;;;;;29.63;13.00;;;;;;;-1.12;60.42;101121.22;5093791;28;20444;-65
2022/03/21 03:55:49;;;;;;;27.70;12.40;;;;;;;-1.11;59.96;101122.06;5095249;28;20472;-57
2022/03/21 03:58:16;;;;;;;28.50;12.80;;;;;;;-1.03;59.50;101120.47;5097729;28;20456;-65
2022/03/21 04:00:44;;;;;;;29.70;13.47;;;;;;;-1.01;59.36;101114.63;5095892;28;20506;-57
2022/03/21 04:05:58;;;;;;;33.43;15.63;;;;;;;-1.11;59.69;101125.41;5095439;28;20563;-57
2022/03/21 04:08:27;;;;;;;37.87;17.33;;;;;;;-1.09;59.29;101110.38;5095880;28;20431;-57
2022/03/21 04:10:54;;;;;;;35.67;16.43;;;;;;;-1.06;59.49;101111.22;5096829;28;20474;-65
2022/03/21 04:13:21;;;;;;;37.17;16.33;;;;;;;-1.09;59.74;101113.72;5095913;28;20452;-57
2022/03/21 04:15:48;;;;;;;26.47;12.53;;;;;;;-1.09;58.86;101112.88;5095888;28;20486;-56
2022/03/21 04:18:15;;;;;;;30.30;13.97;;;;;;;-1.12;59.54;101110.34;5095930;28;20448;-65
2022/03/21 04:20:44;;;;;;;26.23;11.77;;;;;;;-1.12;59.06;101112.84;5095023;28;20488;-65
2022/03/21 04:23:11;;;;;;;23.27;11.77;;;;;;;-1.23;59.35;101108.56;5095596;28;20444;-65
2022/03/21 04:25:39;;;;;;;27.40;12.53;;;;;;;-1.22;58.53;101120.31;5095409;28;20468;-57
2022/03/21 04:28:11;;;;;;;24.93;12.60;;;;;;;-1.35;59.71;101117.66;5096078;28;20475;-56
2022/03/21 04:30:38;;;;;;;21.10;11.53;;;;;;;-1.32;60.38;101117.69;5095630;28;20529;-64
2022/03/21 04:33:05;;;;;;;26.73;12.03;;;;;;;-1.34;60.35;101110.16;5096323;28;20440;-57
2022/03/21 04:35:32;;;;;;;26.03;12.37;;;;;;;-1.36;60.63;101124.38;5096352;28;20484;-57
2022/03/21 04:37:59;;;;;;;27.10;11.70;;;;;;;-1.34;60.92;101119.34;5095539;28;20459;-65
2022/03/21 04:40:26;;;;;;;26.53;13.00;;;;;;;-1.31;60.65;101119.38;5095049;28;20491;-65
2022/03/21 04:42:55;;;;;;;31.53;14.63;;;;;;;-1.42;60.75;101124.31;5094764;28;20471;-64
2022/03/21 04:45:22;;;;;;;34.07;15.00;;;;;;;-1.33;60.76;101131.09;5095963;28;20882;-57
2022/03/21 04:47:49;;;;;;;29.23;13.80;;;;;;;-1.16;60.14;101129.56;5094877;28;20467;-57
2022/03/21 04:50:16;;;;;;;33.20;15.03;;;;;;;-1.05;61.25;101132.16;5093572;28;20566;-57
2022/03/21 04:52:43;;;;;;;36.37;15.00;;;;;;;-1.00;61.63;101136.38;5095045;28;20448;-64
2022/03/21 04:55:10;;;;;;;29.97;13.80;;;;;;;-0.93;60.29;101132.25;5093859;28;21036;-65
2022/03/21 04:57:37;;;;;;;36.03;15.07;;;;;;;-0.89;60.55;101148.19;5093002;28;20423;-56
2022/03/21 05:00:07;;;;;;;34.90;14.33;;;;;;;-0.72;61.24;101147.47;5096089;28;20476;-65
2022/03/21 05:02:34;;;;;;;35.93;13.93;;;;;;;-0.61;60.84;101149.22;5095124;28;20431;-65
2022/03/21 05:05:02;;;;;;;30.90;14.57;;;;;;;-0.40;60.29;101151.88;5095620;28;20480;-57
2022/03/21 05:07:29;;;;;;;29.73;13.60;;;;;;;-0.38;60.52;101152.69;5094187;28;20479;-61
2022/03/21 05:09:56;;;;;;;28.73;13.33;;;;;;;-0.27;61.08;101150.25;5096852;28;20906;-64
2022/03/21 05:12:23;;;;;;;32.53;13.97;;;;;;;-0.14;61.13;101141.13;5099064;28;20213;-56
2022/03/21 05:14:50;;;;;;;26.77;14.13;;;;;;;-0.01;59.80;101143.69;5099562;28;20450;-57
2022/03/21 05:17:18;;;;;;;31.43;13.40;;;;;;;0.18;61.34;101147.13;5098969;28;20455;-58
2022/03/21 05:19:45;;;;;;;29.97;13.77;;;;;;;0.33;61.54;101145.50;5098744;28;20210;-65
2022/03/21 05:22:12;;;;;;;29.03;13.53;;;;;;;0.53;58.51;101146.38;5098835;28;20565;-66
2022/03/21 05:35:55;;;;;;;28.00;13.60;;;;;;;1.52;53.29;101160.66;5098335;28;20229;-57
2022/03/21 05:38:23;;;;;;;30.90;14.17;;;;;;;1.85;56.62;101163.94;5099683;28;20265;-57
2022/03/21 05:40:50;;;;;;;27.00;14.10;;;;;;;2.09;54.35;101164.69;5098389;28;20257;-65
2022/03/21 05:43:17;;;;;;;24.60;12.70;;;;;;;2.36;53.32;101164.59;5099080;28;20213;-57
2022/03/21 05:45:44;;;;;;;28.17;14.10;;;;;;;2.63;53.51;101172.84;5099085;28;20231;-57
2022/03/21 05:50:57;;;;;;;27.83;13.43;;;;;;;3.26;52.90;101173.25;5097390;28;20290;-65
2022/03/21 05:53:24;;;;;;;30.47;13.03;;;;;;;3.50;50.03;101168.81;5097410;28;20232;-57
2022/03/21 05:55:52;;;;;;;26.73;13.13;;;;;;;3.79;50.32;101171.88;5097054;28;20600;-58
2022/03/21 05:58:19;;;;;;;29.97;14.10;;;;;;;4.13;50.74;101170.63;5097771;28;20234;-57
2022/03/21 06:00:46;;;;;;;26.73;13.23;;;;;;;4.30;47.38;101169.59;5097622;28;20699;-59
2022/03/21 06:03:16;;;;;;;27.37;13.77;;;;;;;4.53;48.58;101171.78;5095598;28;20202;-66
2022/03/21 06:05:44;;;;;;;23.27;12.77;;;;;;;4.78;46.42;101170.63;5095817;28;20233;-66
2022/03/21 06:08:10;;;;;;;29.43;13.93;;;;;;;4.76;46.30;101168.94;5095739;28;20213;-58
2022/03/21 06:10:37;;;;;;;29.30;14.60;;;;;;;4.94;47.00;101177.13;5095347;28;20218;-57
2022/03/21 06:13:06;;;;;;;26.80;13.37;;;;;;;4.81;44.94;101170.56;5095476;28;20210;-58
2022/03/21 06:15:34;;;;;;;28.43;12.83;;;;;;;4.70;45.26;101174.09;5097077;28;20248;-56
2022/03/21 06:18:01;;;;;;;28.97;13.20;;;;;;;4.92;46.30;101172.09;5100340;28;20598;-55
2022/03/21 06:20:30;;;;;;;28.87;13.47;;;;;;;4.88;44.65;101175.50;5098969;28;20253;-56
2022/03/21 06:22:58;;;;;;;26.57;13.43;;;;;;;4.90;44.64;101170.44;5097360;28;20202;-64
2022/03/21 06:25:25;;;;;;;23.97;13.00;;;;;;;5.05;45.40;101170.19;5097723;28;20237;-63
2022/03/21 06:27:52;;;;;;;23.77;12.20;;;;;;;5.24;43.70;101174.97;5100173;28;20228;-55
2022/03/21 06:30:20;;;;;;;26.10;13.17;;;;;;;5.53;45.18;101177.84;5099214;28;20264;-64
2022/03/21 06:32:47;;;;;;;30.63;15.80;;;;;;;5.83;44.62;101176.44;5097913;28;20679;-56
2022/03/21 06:35:15;;;;;;;27.90;14.47;;;;;;;5.93;43.67;101174.56;5097957;28;20301;-64
2022/03/21 06:37:43;;;;;;;25.60;13.77;;;;;;;6.32;45.38;101184.81;5095880;28;20194;-65
2022/03/21 06:40:12;;;;;;;27.50;14.47;;;;;;;6.53;44.43;101166.56;5096804;28;20221;-56
2022/03/21 06:42:39;;;;;;;26.83;15.40;;;;;;;6.70;42.92;101170.44;5096403;28;20772;-56
2022/03/21 06:45:10;;;;;;;25.97;14.30;;;;;;;6.84;42.34;101168.41;5096933;28;20217;-65
2022/03/21 06:47:37;;;;;;;29.53;14.13;;;;;;;7.00;42.31;101172.25;5096446;28;20210;-56
2022/03/21 06:50:05;;;;;;;25.50;13.97;;;;;;;7.24;42.41;101169.97;5095852;28;20233;-56
2022/03/21 06:52:32;;;;;;;29.33;15.77;;;;;;;7.25;42.75;101169.94;5097564;28;20194;-65
2022/03/21 06:55:01;;;;;;;28.27;14.23;;;;;;;7.27;41.38;101162.25;5096540;28;20221;-64
2022/03/21 06:57:28;;;;;;;26.77;14.07;;;;;;;7.51;41.32;101167.63;5095750;28;20202;-56
2022/03/21 06:59:55;;;;;;;27.07;14.30;;;;;;;7.87;40.33;101164.06;5094760;28;20836;-65
2022/03/21 07:02:23;;;;;;;27.97;13.87;;;;;;;8.07;40.32;101160.13;5095756;28;20226;-56
2022/03/21 07:04:50;;;;;;;24.03;13.10;;;;;;;8.14;39.23;101171.81;5095623;28;20208;-56
2022/03/21 07:07:16;;;;;;;23.57;12.83;;;;;;;8.46;37.42;101167.50;5095865;28;20206;-66
2022/03/21 07:09:44;;;;;;;22.40;12.37;;;;;;;8.38;36.45;101171.13;5094242;28;20202;-66
2022/03/21 07:12:12;;;;;;;27.23;13.30;;;;;;;8.29;37.31;101168.84;5094796;28;20668;-66
2022/03/21 07:14:39;;;;;;;23.83;12.83;;;;;;;8.22;37.70;101172.41;5095907;28;20209;-65
2022/03/21 07:17:07;;;;;;;22.50;13.00;;;;;;;8.30;36.07;101173.03;5096239;28;20213;-65
2022/03/21 07:19:34;;;;;;;23.87;13.57;;;;;;;8.24;36.64;101172.41;5095693;28;20198;-66
2022/03/21 07:22:01;;;;;;;27.60;13.87;;;;;;;8.57;38.07;101173.94;5095921;28;20234;-66
2022/03/21 07:24:28;;;;;;;24.23;13.90;;;;;;;8.95;37.04;101176.19;5094894;28;20206;-65
2022/03/21 07:26:56;;;;;;;20.83;12.83;;;;;;;9.15;36.12;101176.38;5095526;28;20222;-66
2022/03/21 07:29:24;;;;;;;24.07;13.63;;;;;;;8.82;37.48;101176.59;5095814;28;20213;-66
2022/03/21 07:31:51;;;;;;;25.20;13.40;;;;;;;8.65;37.74;101176.28;5096984;28;20226;-66
2022/03/21 07:34:18;;;;;;;23.83;13.10;;;;;;;8.78;37.29;101184.38;5095267;28;20206;-67
2022/03/21 07:36:45;;;;;;;24.73;13.40;;;;;;;9.13;37.72;101179.88;5095566;28;20229;-58
2022/03/21 07:39:12;;;;;;;27.43;14.33;;;;;;;9.71;35.35;101183.84;5095106;28;20211;-58
2022/03/21 07:41:39;;;;;;;30.67;14.10;;;;;;;9.79;37.87;101186.13;5095711;28;20288;-58
2022/03/21 07:44:07;;;;;;;25.70;13.47;;;;;;;9.98;37.59;101191.44;5093943;28;20275;-66
2022/03/21 07:49:20;;;;;;;22.77;12.83;;;;;;;9.27;36.34;101198.94;5095990;28;20213;-65
2022/03/21 07:51:48;;;;;;;23.67;12.83;;;;;;;9.62;37.14;101194.38;5094164;28;20226;-66
2022/03/21 07:54:16;;;;;;;26.23;13.57;;;;;;;9.92;35.08;101196.75;5094885;28;20694;-58
2022/03/21 07:56:43;;;;;;;29.73;15.03;;;;;;;10.10;35.80;101196.09;5093581;28;20233;-66
2022/03/21 07:59:10;;;;;;;22.77;13.77;;;;;;;9.85;38.03;101200.41;5093754;28;20233;-57
2022/03/21 08:01:41;;;;;;;23.10;13.57;;;;;;;9.62;34.89;101204.59;5093095;28;20241;-66
2022/03/21 08:04:09;;;;;;;26.03;13.63;;;;;;;9.16;37.75;101200.19;5093458;28;20196;-66
2022/03/21 08:06:36;;;;;;;22.93;13.97;;;;;;;9.20;35.91;101192.38;5092491;28;20608;-58
2022/03/21 08:09:03;;;;;;;24.00;13.40;;;;;;;8.85;36.58;101198.63;5094486;28;20202;-66
2022/03/21 08:11:30;;;;;;;25.03;13.70;;;;;;;9.14;39.97;101201.97;5094785;28;20230;-57
2022/03/21 08:13:56;;;;;;;28.30;14.20;;;;;;;9.30;38.24;101198.84;5093333;28;20205;-58
2022/03/21 08:16:23;;;;;;;28.03;14.43;;;;;;;9.71;37.29;101196.59;5093432;28;20222;-66
2022/03/21 08:18:53;;;;;;;24.40;13.27;;;;;;;9.78;37.38;101198.97;5094757;28;20217;-66
2022/03/21 08:21:23;;;;;;;25.10;14.70;;;;;;;9.63;37.90;101203.72;5095028;28;20233;-57
2022/03/21 08:23:50;;;;;;;22.93;13.70;;;;;;;9.22;37.63;101188.06;5093724;28;20274;-57
2022/03/21 08:26:18;;;;;;;29.87;14.70;;;;;;;9.04;39.99;101186.09;5094254;28;20224;-65
2022/03/21 08:28:45;;;;;;;26.63;14.87;;;;;;;9.50;39.04;101184.59;5092988;28;20202;-65
2022/03/21 08:31:14;;;;;;;24.37;13.13;;;;;;;10.26;37.98;101180.19;5093879;28;20225;-57
2022/03/21 08:33:43;;;;;;;24.23;12.70;;;;;;;9.98;35.87;101187.16;5094396;28;20604;-57
2022/03/21 08:36:12;;;;;;;23.93;12.03;;;;;;;10.42;36.95;101177.03;5096082;28;20222;-57
2022/03/21 08:38:39;;;;;;;22.33;13.53;;;;;;;10.20;36.51;101186.34;5096398;28;20210;-56
2022/03/21 08:41:06;;;;;;;25.23;13.60;;;;;;;10.71;37.48;101179.38;5095618;28;20221;-64
2022/03/21 08:43:33;;;;;;;23.63;13.43;;;;;;;10.03;36.14;101178.47;5094928;28;20198;-57
2022/03/21 08:46:00;;;;;;;23.03;13.33;;;;;;;9.54;37.04;101178.50;5094336;28;20222;-65
2022/03/21 08:51:08;;;;;;;21.73;12.13;;;;;;;9.91;38.88;101183.13;5094893;28;20257;-65
2022/03/21 08:53:36;;;;;;;26.23;13.40;;;;;;;10.36;36.76;101182.38;5094891;28;20205;-65
2022/03/21 08:56:04;;;;;;;28.10;14.57;;;;;;;10.39;38.60;101166.09;5095148;28;20233;-57
2022/03/21 08:58:31;;;;;;;21.17;12.27;;;;;;;10.25;36.39;101178.53;5094537;28;20202;-66
2022/03/21 09:00:58;;;;;;;24.33;13.40;;;;;;;10.61;39.42;101177.13;5094010;28;20228;-65
2022/03/21 09:03:25;;;;;;;23.63;12.70;;;;;;;11.01;36.24;101165.31;5093638;28;20271;-57
2022/03/21 09:05:52;;;;;;;23.27;13.00;;;;;;;11.34;37.40;101157.13;5093603;28;20609;-64
2022/03/21 09:08:19;;;;;;;23.57;13.37;;;;;;;11.26;36.96;101164.34;5092841;28;20289;-64
2022/03/21 09:10:48;;;;;;;24.07;14.87;;;;;;;11.49;36.96;101164.19;5095555;28;20229;-65
2022/03/21 09:13:15;;;;;;;26.53;16.27;;;;;;;11.66;34.89;101163.44;5093256;28;20758;-66
2022/03/21 09:15:42;;;;;;;23.07;13.07;;;;;;;11.99;34.49;101161.16;5092765;28;20225;-64
2022/03/21 09:18:09;;;;;;;24.33;13.73;;;;;;;11.05;36.29;101161.75;5092068;28;20202;-58
2022/03/21 09:20:36;;;;;;;24.43;13.87;;;;;;;11.81;36.98;101156.84;5092171;28;20218;-57
2022/03/21 09:23:04;;;;;;;23.17;13.30;;;;;;;11.60;36.66;101152.63;5091719;28;20233;-66
2022/03/21 09:25:30;;;;;;;22.70;12.87;;;;;;;10.98;36.68;101155.22;5092281;28;20233;-57
2022/03/21 09:27:59;;;;;;;24.53;13.87;;;;;;;11.72;36.48;101146.97;5092832;28;20202;-57
2022/03/21 09:30:26;;;;;;;21.17;12.43;;;;;;;12.09;34.57;101159.00;5091737;28;20236;-66
2022/03/21 09:32:53;;;;;;;20.67;12.47;;;;;;;12.51;36.12;101151.97;5092085;28;20208;-57
2022/03/21 09:35:20;;;;;;;18.30;11.30;;;;;;;12.12;32.65;101150.34;5091729;28;20221;-66
2022/03/21 09:37:47;;;;;;;23.20;12.70;;;;;;;12.53;36.95;101140.72;5091717;28;20212;-66
2022/03/21 09:40:17;;;;;;;22.50;11.40;;;;;;;12.32;34.77;101142.56;5092162;28;20229;-57
2022/03/21 09:42:44;;;;;;;19.77;10.97;;;;;;;12.43;33.36;101132.66;5092318;28;20302;-66
2022/03/21 09:45:14;;;;;;;20.90;11.50;;;;;;;12.09;34.79;101142.81;5092300;28;20305;-66
2022/03/21 09:50:34;;;;;;;22.37;12.97;;;;;;;12.59;34.91;101134.47;5092733;28;20214;-63
2022/03/21 09:53:02;;;;;;;17.97;10.40;;;;;;;12.28;32.55;101120.53;5091665;28;20198;-66
2022/03/21 09:55:29;;;;;;;21.90;11.67;;;;;;;12.63;33.55;101125.75;5092020;28;20229;-66
2022/03/21 09:57:57;;;;;;;22.87;12.57;;;;;;;12.40;33.59;101119.97;5095807;28;20641;-57
2022/03/21 10:00:26;;;;;;;19.83;11.67;;;;;;;12.71;34.06;101120.22;5095172;28;20228;-66
2022/03/21 10:02:53;;;;;;;18.10;10.73;;;;;;;12.52;32.83;101117.72;5096025;28;20233;-57
2022/03/21 10:05:38;;;;;;;18.27;10.67;;;;;;;11.64;35.32;101118.31;5096096;28;20617;-60
2022/03/21 10:08:18;;;;;;;19.20;10.83;;;;;;;12.49;34.99;101113.56;5095810;28;20194;-58
2022/03/21 10:10:59;;;;;;;17.73;9.50;;;;;;;12.41;34.54;101116.47;5086367;28;20225;-66
2022/03/21 10:13:28;;;;;;;18.53;11.07;;;;;;;12.83;32.77;101104.25;5095206;28;20194;-58
2022/03/21 10:16:13;;;;;;;16.70;9.87;;;;;;;13.17;32.73;101105.94;5095184;28;20221;-66
2022/03/21 10:18:56;;;;;;;17.47;11.07;;;;;;;12.62;33.18;101095.84;5096061;28;20217;-57
2022/03/21 10:21:26;;;;;;;18.27;10.73;;;;;;;12.64;33.36;101105.13;5094774;28;20584;-67
2022/03/21 10:24:02;;;;;;;19.63;11.33;;;;;;;11.93;34.79;101105.06;5096263;28;20205;-66
2022/03/21 10:26:31;;;;;;;22.03;12.50;;;;;;;12.46;33.29;101104.28;5097168;28;20248;-66
2022/03/21 10:29:00;;;;;;;20.90;10.97;;;;;;;12.08;32.35;101106.06;5096520;28;20209;-66
2022/03/21 10:31:43;;;;;;;18.53;10.60;;;;;;;11.79;35.77;101104.81;5096404;28;20329;-57
2022/03/21 10:34:13;;;;;;;19.00;11.47;;;;;;;11.33;33.13;101106.81;5095371;28;20194;-57
2022/03/21 10:36:58;;;;;;;17.33;10.77;;;;;;;11.59;34.60;101104.88;5096003;28;20699;-57
2022/03/21 10:39:25;;;;;;;15.27;8.30;;;;;;;10.73;34.73;101105.91;5096739;28;20275;-66
2022/03/21 10:41:56;;;;;;;20.60;10.90;;;;;;;11.76;34.82;101102.38;5095279;28;20233;-64
2022/03/21 10:44:25;;;;;;;23.07;11.67;;;;;;;12.21;34.07;101093.50;5095493;28;20190;-65
2022/03/21 10:46:54;;;;;;;18.00;10.40;;;;;;;12.13;32.40;101088.75;5096698;28;20225;-58
2022/03/21 10:49:37;;;;;;;20.90;10.57;;;;;;;11.97;32.13;101088.63;5094077;28;20202;-65
2022/03/21 10:52:06;;;;;;;16.93;9.97;;;;;;;11.76;32.29;101081.88;5095017;28;20236;-57
2022/03/21 10:54:38;;;;;;;20.50;11.57;;;;;;;12.54;33.09;101080.81;5093560;28;20206;-67
2022/03/21 10:57:06;;;;;;;17.87;10.67;;;;;;;12.10;31.30;101078.66;5095698;28;20213;-66
2022/03/21 10:59:33;;;;;;;19.80;11.03;;;;;;;12.55;34.33;101071.38;5094930;28;20209;-66
2022/03/21 11:02:18;;;;;;;21.33;10.83;;;;;;;12.49;32.94;101071.69;5094677;28;20234;-65
2022/03/21 11:04:46;;;;;;;19.47;11.33;;;;;;;12.67;31.36;101060.50;5095656;28;20209;-57
2022/03/21 11:07:14;;;;;;;16.83;10.10;;;;;;;12.83;31.79;101064.00;5097160;28;20688;-66
2022/03/21 11:09:43;;;;;;;18.93;11.10;;;;;;;12.60;32.38;101060.00;5095650;28;20290;-57
2022/03/21 11:12:11;;;;;;;17.83;10.53;;;;;;;12.18;32.28;101042.38;5094786;28;20711;-66
2022/03/21 11:14:40;;;;;;;23.10;11.83;;;;;;;12.67;33.16;101050.25;5093606;28;20202;-66
2022/03/21 11:17:08;;;;;;;16.73;10.03;;;;;;;12.79;32.20;101049.63;5094835;28;20234;-57
2022/03/21 11:19:37;;;;;;;16.53;10.47;;;;;;;13.00;31.86;101041.75;5094349;28;20217;-57
2022/03/21 11:22:06;;;;;;;18.10;10.53;;;;;;;11.75;33.77;101039.19;5095243;28;20205;-66
2022/03/21 11:24:35;;;;;;;19.30;10.90;;;;;;;11.76;33.48;101035.75;5095373;28;20206;-57
2022/03/21 11:27:22;;;;;;;20.07;10.60;;;;;;;12.28;34.21;101042.78;5094054;28;20206;-66
2022/03/21 11:30:01;;;;;;;16.83;10.23;;;;;;;12.73;31.85;101038.84;5094353;28;20210;-66
2022/03/21 11:32:51;;;;;;;22.20;11.30;;;;;;;12.96;31.85;101035.13;5096189;28;20588;-57
2022/03/21 11:35:28;;;;;;;18.40;10.17;;;;;;;11.67;31.99;101025.94;5094555;28;20233;-66
2022/03/21 11:37:55;;;;;;;17.63;9.60;;;;;;;12.39;33.11;101023.41;5092881;28;20288;-66
2022/03/21 11:40:32;;;;;;;15.37;9.27;;;;;;;12.71;32.42;101020.13;5095482;28;20230;-65
2022/03/21 11:43:29;;;;;;;17.33;9.97;;;;;;;12.51;30.65;101013.41;5095019;28;20710;-57
2022/03/21 11:45:57;;;;;;;19.10;10.37;;;;;;;12.36;32.48;101013.28;5095231;28;20232;-58
2022/03/21 11:48:34;;;;;;;17.07;10.27;;;;;;;12.59;32.32;101006.16;5095108;28;20212;-66